Time;durP1;ratioP1;P1;durP2;ratioP2;P2;SDS_P1;SDS_P2;PMS_P1;PMS_P2;Temp;Humidity;BMP_temperature;BMP_pressure;BME280_temperature;BME280_humidity;BME280_pressure;Samples;Min_cycle;Max_cycle;Signal;HPM_P1;HPM_P2
2021/04/26 00:00:25;;;;;;;2.65;1.17;;;;;;;;;;5012722;28;20037;-53
2021/04/26 00:02:51;;;;;;;4.78;0.82;;;;;;;;;;5003634;28;20047;-53
2021/04/26 00:05:18;;;;;;;4.65;1.05;;;;;;;;;;4980137;28;20056;-56
2021/04/26 00:07:45;;;;;;;10.82;1.20;;;;;;;;;;5005556;28;20058;-56
2021/04/26 00:10:12;;;;;;;3.60;0.90;;;;;;;;;;5003198;28;20052;-52
2021/04/26 00:12:38;;;;;;;5.57;1.20;;;;;;;;;;5003313;28;20033;-52
2021/04/26 00:15:05;;;;;;;7.03;1.10;;;;;;;;;;5008491;28;20037;-56
2021/04/26 00:17:31;;;;;;;6.57;1.02;;;;;;;;;;4999562;28;20061;-52
2021/04/26 00:19:57;;;;;;;7.78;1.17;;;;;;;;;;5001000;28;20046;-53
2021/04/26 00:22:23;;;;;;;8.25;1.15;;;;;;;;;;5000181;28;20119;-52
2021/04/26 00:24:50;;;;;;;6.97;1.13;;;;;;;;;;5004846;28;20049;-54
2021/04/26 00:27:16;;;;;;;6.80;1.20;;;;;;;;;;5015400;28;20057;-56
2021/04/26 00:29:42;;;;;;;3.28;1.10;;;;;;;;;;5021899;28;20045;-55
2021/04/26 00:32:08;;;;;;;3.40;1.20;;;;;;;;;;5017172;28;20030;-55
2021/04/26 00:34:34;;;;;;;3.65;1.00;;;;;;;;;;5004772;28;20033;-52
2021/04/26 00:37:00;;;;;;;5.22;1.02;;;;;;;;;;5001107;28;20036;-55
2021/04/26 00:39:26;;;;;;;4.90;1.38;;;;;;;;;;5020155;28;20143;-50
2021/04/26 00:41:53;;;;;;;9.45;1.30;;;;;;;;;;5020567;28;20045;-52
2021/04/26 00:44:19;;;;;;;7.55;1.10;;;;;;;;;;5022498;28;20046;-54
2021/04/26 00:46:47;;;;;;;4.55;1.05;;;;;;;;;;5004690;28;20045;-55
2021/04/26 00:49:13;;;;;;;5.28;1.20;;;;;;;;;;5003348;28;20052;-53
2021/04/26 00:51:39;;;;;;;5.07;1.42;;;;;;;;;;5023579;28;20038;-51
2021/04/26 00:54:05;;;;;;;7.32;1.40;;;;;;;;;;5000279;28;20118;-55
2021/04/26 00:56:31;;;;;;;7.88;1.35;;;;;;;;;;5023775;28;20042;-50
2021/04/26 00:58:58;;;;;;;5.03;1.30;;;;;;;;;;4998107;28;20046;-49
2021/04/26 01:01:25;;;;;;;4.65;1.05;;;;;;;;;;5005547;28;20059;-53
2021/04/26 01:03:51;;;;;;;7.63;1.45;;;;;;;;;;5009233;28;20048;-52
2021/04/26 01:06:17;;;;;;;7.20;1.70;;;;;;;;;;5037849;28;20033;-54
2021/04/26 01:08:43;;;;;;;5.15;1.10;;;;;;;;;;5027346;28;20134;-53
2021/04/26 01:11:09;;;;;;;5.32;1.13;;;;;;;;;;5043591;28;20137;-54
2021/04/26 01:13:53;;;;;;;8.90;1.42;;;;;;;;;;5024569;28;20060;-51
2021/04/26 01:16:23;;;;;;;6.18;1.40;;;;;;;;;;5024544;28;20049;-53
2021/04/26 01:18:53;;;;;;;3.47;1.02;;;;;;;;;;5027826;28;20106;-55
2021/04/26 01:21:38;;;;;;;5.25;0.95;;;;;;;;;;5044684;28;20118;-54
2021/04/26 01:24:22;;;;;;;5.43;1.10;;;;;;;;;;5059741;28;20041;-52
2021/04/26 01:27:02;;;;;;;6.25;1.80;;;;;;;;;;5043789;28;20036;-54
2021/04/26 01:29:35;;;;;;;3.47;1.00;;;;;;;;;;5058767;28;20044;-49
2021/04/26 01:32:11;;;;;;;6.38;1.10;;;;;;;;;;5045727;28;20041;-51
2021/04/26 01:34:38;;;;;;;3.97;1.65;;;;;;;;;;5045619;28;20045;-54
2021/04/26 01:37:04;;;;;;;5.13;1.10;;;;;;;;;;5040290;28;20049;-54
2021/04/26 01:39:31;;;;;;;4.57;1.27;;;;;;;;;;5042168;28;20047;-56
2021/04/26 01:41:58;;;;;;;3.67;1.33;;;;;;;;;;5047089;28;20037;-53
2021/04/26 01:44:24;;;;;;;6.43;1.35;;;;;;;;;;5042327;28;20060;-54
2021/04/26 01:46:51;;;;;;;4.90;1.30;;;;;;;;;;5045065;28;20048;-52
2021/04/26 01:49:19;;;;;;;10.05;1.33;;;;;;;;;;5039299;28;20122;-54
2021/04/26 01:51:46;;;;;;;3.35;1.08;;;;;;;;;;5040546;28;20030;-55
2021/04/26 01:54:12;;;;;;;4.65;1.17;;;;;;;;;;5029732;28;20049;-54
2021/04/26 01:56:39;;;;;;;3.28;1.15;;;;;;;;;;5037680;28;20038;-54
2021/04/26 01:59:06;;;;;;;8.15;1.20;;;;;;;;;;5039622;28;20099;-55
2021/04/26 02:01:32;;;;;;;5.03;1.15;;;;;;;;;;5046764;28;20029;-53
2021/04/26 02:03:59;;;;;;;4.90;1.05;;;;;;;;;;5062708;28;20055;-50
2021/04/26 02:06:27;;;;;;;5.80;1.17;;;;;;;;;;5041543;28;20041;-52
2021/04/26 02:08:55;;;;;;;5.47;1.00;;;;;;;;;;5041614;28;20049;-51
2021/04/26 02:11:21;;;;;;;8.60;1.30;;;;;;;;;;5048041;28;20041;-54
2021/04/26 02:13:48;;;;;;;6.82;1.25;;;;;;;;;;5043519;28;20057;-52
2021/04/26 02:16:13;;;;;;;6.40;1.20;;;;;;;;;;5037243;28;20049;-50
2021/04/26 02:18:40;;;;;;;8.00;1.15;;;;;;;;;;5024400;28;20048;-52
2021/04/26 02:21:06;;;;;;;9.23;1.40;;;;;;;;;;5040879;28;20115;-54
2021/04/26 02:23:33;;;;;;;6.13;1.13;;;;;;;;;;5044130;28;20299;-53
2021/04/26 02:25:59;;;;;;;5.95;1.13;;;;;;;;;;5039130;28;20044;-50
2021/04/26 02:28:25;;;;;;;5.95;1.60;;;;;;;;;;5036072;28;20045;-52
2021/04/26 02:30:53;;;;;;;4.00;1.20;;;;;;;;;;5041340;28;20040;-54
2021/04/26 02:33:21;;;;;;;2.95;1.10;;;;;;;;;;5041546;28;20052;-51
2021/04/26 02:35:48;;;;;;;7.27;1.10;;;;;;;;;;5043532;28;20443;-50
2021/04/26 02:38:16;;;;;;;3.08;1.02;;;;;;;;;;5058976;28;20049;-52
2021/04/26 02:40:45;;;;;;;4.87;1.27;;;;;;;;;;5044250;28;20041;-53
2021/04/26 02:43:12;;;;;;;9.57;1.40;;;;;;;;;;5036977;28;20037;-53
2021/04/26 02:45:40;;;;;;;7.38;1.58;;;;;;;;;;5039402;28;20139;-52
2021/04/26 02:48:08;;;;;;;4.20;1.10;;;;;;;;;;5040558;28;20064;-51
2021/04/26 02:50:34;;;;;;;7.50;1.45;;;;;;;;;;5044081;28;20052;-49
2021/04/26 02:53:01;;;;;;;5.50;1.10;;;;;;;;;;5042586;28;20053;-56
2021/04/26 02:55:28;;;;;;;6.53;1.30;;;;;;;;;;5064563;28;20044;-52
2021/04/26 02:57:56;;;;;;;8.23;1.30;;;;;;;;;;5042701;28;20053;-49
2021/04/26 03:00:23;;;;;;;3.63;1.08;;;;;;;;;;5064098;28;20051;-53
2021/04/26 03:02:50;;;;;;;3.70;1.10;;;;;;;;;;5043710;28;20049;-55
2021/04/26 03:05:16;;;;;;;8.40;1.48;;;;;;;;;;5047335;28;20047;-54
2021/04/26 03:07:43;;;;;;;2.38;0.93;;;;;;;;;;5045609;28;20033;-53
2021/04/26 03:10:10;;;;;;;4.18;1.13;;;;;;;;;;5048284;28;20044;-55
2021/04/26 03:12:38;;;;;;;10.80;1.23;;;;;;;;;;5061113;28;20060;-51
2021/04/26 03:15:06;;;;;;;10.63;1.10;;;;;;;;;;5046644;28;20040;-52
2021/04/26 03:17:33;;;;;;;15.02;1.05;;;;;;;;;;5044765;28;20419;-53
2021/04/26 03:19:59;;;;;;;4.20;1.00;;;;;;;;;;5043353;28;20045;-52
2021/04/26 03:22:25;;;;;;;4.55;1.00;;;;;;;;;;5045763;28;20573;-54
2021/04/26 03:24:51;;;;;;;3.97;1.20;;;;;;;;;;5039634;28;20045;-53
2021/04/26 03:27:20;;;;;;;4.22;1.10;;;;;;;;;;5043950;28;20045;-54
2021/04/26 03:29:46;;;;;;;;;;;;;;;;;;5037649;28;20071;-54
2021/04/26 03:32:13;;;;;;;5.97;1.17;;;;;;;;;;5040763;28;19925;-55
2021/04/26 03:34:40;;;;;;;4.53;0.90;;;;;;;;;;5041756;28;20052;-53
2021/04/26 03:37:10;;;;;;;8.73;1.40;;;;;;;;;;5045233;28;20056;-51
2021/04/26 03:39:36;;;;;;;2.38;1.00;;;;;;;;;;5042087;28;20044;-54
2021/04/26 03:42:02;;;;;;;2.35;0.85;;;;;;;;;;5044261;28;20049;-51
2021/04/26 03:44:28;;;;;;;2.80;1.00;;;;;;;;;;5061021;28;20041;-53
2021/04/26 03:46:55;;;;;;;2.05;0.90;;;;;;;;;;5061924;28;20032;-55
2021/04/26 03:49:22;;;;;;;7.75;1.10;;;;;;;;;;5059581;28;20048;-54
2021/04/26 03:51:48;;;;;;;9.00;1.23;;;;;;;;;;5045464;28;20041;-53
2021/04/26 03:54:14;;;;;;;6.30;1.13;;;;;;;;;;5041571;28;20056;-55
2021/04/26 03:56:41;;;;;;;2.28;1.17;;;;;;;;;;5064108;28;20037;-52
2021/04/26 03:59:07;;;;;;;2.72;1.02;;;;;;;;;;5046105;28;20057;-54
2021/04/26 04:01:33;;;;;;;6.10;1.38;;;;;;;;;;5059591;28;20048;-56
2021/04/26 04:03:59;;;;;;;4.78;1.20;;;;;;;;;;5047233;28;20051;-51
2021/04/26 04:06:26;;;;;;;7.07;1.33;;;;;;;;;;5059918;28;20136;-53
2021/04/26 04:08:53;;;;;;;5.28;1.48;;;;;;;;;;5063561;28;20490;-55
2021/04/26 04:11:19;;;;;;;6.40;1.63;;;;;;;;;;5059214;28;20056;-49
2021/04/26 04:13:45;;;;;;;7.68;1.77;;;;;;;;;;5044138;28;20053;-53
2021/04/26 04:16:11;;;;;;;9.32;1.30;;;;;;;;;;5042672;28;20040;-52
2021/04/26 04:18:37;;;;;;;5.03;1.27;;;;;;;;;;5045210;28;20039;-53
2021/04/26 04:21:04;;;;;;;4.65;1.40;;;;;;;;;;5055255;28;20093;-54
2021/04/26 04:23:30;;;;;;;4.35;1.20;;;;;;;;;;5044098;28;20089;-53
2021/04/26 04:25:56;;;;;;;5.53;1.50;;;;;;;;;;5040591;28;20116;-52
2021/04/26 04:28:22;;;;;;;18.50;1.70;;;;;;;;;;5046159;28;20133;-55
2021/04/26 04:30:48;;;;;;;4.03;1.45;;;;;;;;;;5041708;28;20049;-54
2021/04/26 04:33:15;;;;;;;8.05;1.60;;;;;;;;;;5063514;28;20051;-51
2021/04/26 04:35:41;;;;;;;8.10;1.60;;;;;;;;;;5066519;28;20048;-53
2021/04/26 04:38:09;;;;;;;4.57;1.85;;;;;;;;;;5042187;28;20112;-53
2021/04/26 04:40:40;;;;;;;4.22;1.40;;;;;;;;;;5043184;28;20057;-52
2021/04/26 04:43:07;;;;;;;5.32;1.42;;;;;;;;;;5039390;28;20159;-53
2021/04/26 04:45:33;;;;;;;6.68;1.52;;;;;;;;;;5041296;28;20056;-52
2021/04/26 04:47:59;;;;;;;8.05;1.73;;;;;;;;;;5038546;28;20085;-53
2021/04/26 04:50:25;;;;;;;6.32;1.60;;;;;;;;;;5041262;28;20057;-55
2021/04/26 04:52:52;;;;;;;5.40;1.50;;;;;;;;;;5025662;28;20098;-53
2021/04/26 04:55:18;;;;;;;7.82;1.83;;;;;;;;;;5061808;28;20127;-52
2021/04/26 04:57:45;;;;;;;4.63;1.70;;;;;;;;;;5039905;28;20032;-53
2021/04/26 05:00:12;;;;;;;7.50;1.38;;;;;;;;;;5043780;28;20060;-52
2021/04/26 05:02:38;;;;;;;6.00;1.52;;;;;;;;;;5035745;28;20047;-52
2021/04/26 05:05:05;;;;;;;8.52;1.42;;;;;;;;;;5029602;28;20156;-53
2021/04/26 05:07:31;;;;;;;6.25;1.48;;;;;;;;;;5021898;28;20048;-51
2021/04/26 05:09:57;;;;;;;3.45;1.33;;;;;;;;;;5023036;28;20041;-52
2021/04/26 05:12:23;;;;;;;10.57;1.48;;;;;;;;;;5038644;28;20130;-54
2021/04/26 05:14:50;;;;;;;5.65;1.40;;;;;;;;;;5035605;28;20485;-55
2021/04/26 05:17:16;;;;;;;6.00;1.48;;;;;;;;;;5038626;28;20077;-52
2021/04/26 05:19:43;;;;;;;4.57;1.40;;;;;;;;;;5030394;28;20025;-55
2021/04/26 05:22:08;;;;;;;8.88;1.30;;;;;;;;;;5038575;28;20037;-55
2021/04/26 05:24:35;;;;;;;7.28;1.38;;;;;;;;;;5056859;28;20049;-55
2021/04/26 05:27:01;;;;;;;2.58;1.02;;;;;;;;;;5039252;28;20033;-51
2021/04/26 05:29:27;;;;;;;4.38;1.42;;;;;;;;;;5039312;28;20041;-53
2021/04/26 05:31:54;;;;;;;3.95;1.15;;;;;;;;;;5038071;28;20053;-55
2021/04/26 05:34:20;;;;;;;5.20;1.63;;;;;;;;;;5040839;28;20049;-55
2021/04/26 05:36:47;;;;;;;6.53;1.20;;;;;;;;;;5043140;28;20048;-50
2021/04/26 05:39:13;;;;;;;4.60;1.00;;;;;;;;;;5040645;28;20153;-54
2021/04/26 05:41:39;;;;;;;3.83;1.23;;;;;;;;;;5037772;28;20045;-52
2021/04/26 05:44:05;;;;;;;10.43;2.17;;;;;;;;;;5038051;28;20455;-54
2021/04/26 05:46:31;;;;;;;7.40;2.05;;;;;;;;;;5043300;28;20458;-51
2021/04/26 05:49:00;;;;;;;4.93;1.38;;;;;;;;;;5038635;28;20048;-54
2021/04/26 05:51:25;;;;;;;5.85;1.17;;;;;;;;;;5044135;28;20055;-53
2021/04/26 05:53:51;;;;;;;8.18;1.15;;;;;;;;;;5041965;28;20060;-49
2021/04/26 05:56:17;;;;;;;5.43;1.08;;;;;;;;;;5039764;28;20049;-51
2021/04/26 05:58:44;;;;;;;7.18;1.45;;;;;;;;;;5044278;28;20030;-51
2021/04/26 06:01:10;;;;;;;8.13;1.20;;;;;;;;;;5039850;28;20037;-51
2021/04/26 06:03:35;;;;;;;11.52;1.73;;;;;;;;;;5042354;28;20033;-52
2021/04/26 06:06:03;;;;;;;7.38;1.17;;;;;;;;;;5039398;28;20106;-50
2021/04/26 06:08:29;;;;;;;7.63;2.17;;;;;;;;;;5042865;28;20061;-52
2021/04/26 06:10:55;;;;;;;6.10;1.23;;;;;;;;;;5063864;28;20037;-54
2021/04/26 06:13:25;;;;;;;3.55;0.57;;;;;;;;;;5062678;28;20037;-53
2021/04/26 06:15:51;;;;;;;3.42;0.90;;;;;;;;;;5036293;28;20055;-54
2021/04/26 06:18:18;;;;;;;6.15;1.13;;;;;;;;;;5040787;28;20111;-54
2021/04/26 06:20:45;;;;;;;4.95;1.10;;;;;;;;;;5035471;28;20049;-54
2021/04/26 06:23:13;;;;;;;5.70;1.27;;;;;;;;;;5040327;28;20134;-49
2021/04/26 06:25:39;;;;;;;1.95;0.93;;;;;;;;;;5039716;28;20056;-51
2021/04/26 06:28:06;;;;;;;5.05;1.13;;;;;;;;;;5063938;28;20466;-52
2021/04/26 06:30:32;;;;;;;8.75;1.13;;;;;;;;;;5041766;28;20100;-52
2021/04/26 06:32:58;;;;;;;2.25;0.95;;;;;;;;;;5045957;28;20037;-54
2021/04/26 06:35:24;;;;;;;4.38;1.10;;;;;;;;;;5042877;28;20052;-53
2021/04/26 06:37:50;;;;;;;3.60;0.98;;;;;;;;;;5044325;28;20037;-53
2021/04/26 06:40:17;;;;;;;2.45;1.00;;;;;;;;;;5044689;28;20128;-51
2021/04/26 06:42:43;;;;;;;5.85;1.50;;;;;;;;;;5040534;28;20065;-52
2021/04/26 06:45:10;;;;;;;5.97;1.27;;;;;;;;;;5042662;28;20048;-52
2021/04/26 06:47:36;;;;;;;3.03;0.88;;;;;;;;;;5042813;28;20036;-57
2021/04/26 06:50:03;;;;;;;3.03;0.98;;;;;;;;;;5062349;28;20051;-53
2021/04/26 06:52:29;;;;;;;5.65;1.20;;;;;;;;;;5038384;28;20041;-54
2021/04/26 06:54:54;;;;;;;5.90;1.23;;;;;;;;;;5044269;28;20052;-53
2021/04/26 06:57:23;;;;;;;3.25;0.82;;;;;;;;;;5043923;28;20040;-52
2021/04/26 06:59:48;;;;;;;1.52;0.82;;;;;;;;;;5044327;28;20082;-49
2021/04/26 07:02:14;;;;;;;3.38;0.90;;;;;;;;;;5042657;28;20041;-52
2021/04/26 07:04:41;;;;;;;2.42;0.93;;;;;;;;;;5045798;28;20493;-51
2021/04/26 07:07:07;;;;;;;3.17;0.90;;;;;;;;;;5042308;28;20033;-55
2021/04/26 07:09:33;;;;;;;5.85;1.30;;;;;;;;;;5046056;28;20497;-52
2021/04/26 07:11:59;;;;;;;4.35;1.08;;;;;;;;;;5041481;28;20040;-51
2021/04/26 07:14:26;;;;;;;6.72;1.08;;;;;;;;;;5046166;28;20064;-53
2021/04/26 07:16:52;;;;;;;1.40;0.80;;;;;;;;;;5046671;28;20037;-55
2021/04/26 07:19:25;;;;;;;5.50;1.00;;;;;;;;;;5042980;28;20053;-51
2021/04/26 07:21:54;;;;;;;3.90;0.90;;;;;;;;;;5062777;28;20068;-54
2021/04/26 07:24:20;;;;;;;;;;;;;;;;;;5042639;28;20135;-51
2021/04/26 07:26:47;;;;;;;3.15;0.80;;;;;;;;;;5047272;28;19936;-51
2021/04/26 07:29:13;;;;;;;5.57;1.00;;;;;;;;;;5042222;28;20052;-49
2021/04/26 07:31:40;;;;;;;1.63;0.82;;;;;;;;;;5046081;28;20037;-56
2021/04/26 07:34:06;;;;;;;5.38;0.90;;;;;;;;;;5041948;28;20040;-52
2021/04/26 07:36:32;;;;;;;4.20;1.15;;;;;;;;;;5062323;28;20126;-52
2021/04/26 07:38:58;;;;;;;3.53;0.85;;;;;;;;;;5042012;28;20145;-51
2021/04/26 07:41:24;;;;;;;8.25;0.95;;;;;;;;;;5045791;28;20060;-51
2021/04/26 07:43:50;;;;;;;4.28;1.00;;;;;;;;;;5037205;28;20045;-52
2021/04/26 07:46:16;;;;;;;4.63;1.00;;;;;;;;;;5040206;28;20048;-57
2021/04/26 07:48:43;;;;;;;8.55;1.20;;;;;;;;;;5043075;28;20029;-53
2021/04/26 07:51:09;;;;;;;2.97;0.95;;;;;;;;;;5044622;28;20037;-52
2021/04/26 07:53:35;;;;;;;3.75;1.38;;;;;;;;;;5041783;28;20037;-56
2021/04/26 07:56:01;;;;;;;10.55;1.00;;;;;;;;;;5044053;28;20139;-53
2021/04/26 07:58:28;;;;;;;3.50;0.90;;;;;;;;;;5045105;28;20095;-54
2021/04/26 08:00:54;;;;;;;3.15;1.00;;;;;;;;;;5038395;28;20045;-53
2021/04/26 08:03:20;;;;;;;5.20;1.08;;;;;;;;;;5043139;28;20066;-52
2021/04/26 08:05:47;;;;;;;9.05;1.20;;;;;;;;;;5037648;28;20044;-55
2021/04/26 08:08:13;;;;;;;2.47;0.80;;;;;;;;;;5042188;28;20037;-53
2021/04/26 08:10:39;;;;;;;2.72;1.08;;;;;;;;;;5040712;28;20052;-52
2021/04/26 08:13:05;;;;;;;6.38;1.00;;;;;;;;;;5045206;28;20049;-50
2021/04/26 08:15:31;;;;;;;5.20;1.05;;;;;;;;;;5066184;28;20036;-54
2021/04/26 08:17:58;;;;;;;2.85;1.02;;;;;;;;;;5044898;28;20093;-53
2021/04/26 08:20:25;;;;;;;2.83;0.95;;;;;;;;;;5041829;28;20040;-52
2021/04/26 08:22:51;;;;;;;4.13;1.05;;;;;;;;;;5062348;28;20065;-51
2021/04/26 08:25:17;;;;;;;6.20;1.20;;;;;;;;;;5059344;28;20054;-52
2021/04/26 08:27:44;;;;;;;6.43;0.80;;;;;;;;;;5043897;28;20049;-54
2021/04/26 08:30:10;;;;;;;3.40;1.20;;;;;;;;;;5057661;28;20065;-51
2021/04/26 08:32:36;;;;;;;3.95;1.23;;;;;;;;;;5044184;28;20302;-52
2021/04/26 08:35:03;;;;;;;2.88;0.90;;;;;;;;;;5043018;28;20049;-55
2021/04/26 08:37:29;;;;;;;5.72;1.50;;;;;;;;;;5040716;28;20040;-50
2021/04/26 08:39:57;;;;;;;5.80;2.10;;;;;;;;;;5077333;28;20044;-52
2021/04/26 08:42:23;;;;;;;4.18;1.02;;;;;;;;;;5074968;28;20048;-53
2021/04/26 08:44:49;;;;;;;4.45;1.27;;;;;;;;;;5045358;28;20033;-50
2021/04/26 08:47:15;;;;;;;2.78;1.00;;;;;;;;;;5039831;28;20086;-49
2021/04/26 08:49:41;;;;;;;5.50;1.60;;;;;;;;;;5044283;28;20077;-52
2021/04/26 08:52:07;;;;;;;2.90;1.00;;;;;;;;;;5041064;28;20037;-55
2021/04/26 08:54:33;;;;;;;4.05;1.02;;;;;;;;;;5043076;28;20118;-54
2021/04/26 08:57:00;;;;;;;6.15;1.27;;;;;;;;;;5039007;28;20037;-56
2021/04/26 08:59:26;;;;;;;2.97;1.23;;;;;;;;;;5040528;28;20144;-55
2021/04/26 09:01:59;;;;;;;4.30;1.27;;;;;;;;;;5037572;28;20037;-54
2021/04/26 09:04:24;;;;;;;4.88;1.13;;;;;;;;;;5038972;28;20038;-53
2021/04/26 09:06:56;;;;;;;5.75;1.38;;;;;;;;;;5044736;28;20045;-57
2021/04/26 09:09:41;;;;;;;4.57;1.30;;;;;;;;;;5043019;28;20039;-55
2021/04/26 09:12:09;;;;;;;3.20;1.20;;;;;;;;;;5035916;28;20037;-53
2021/04/26 09:14:36;;;;;;;4.75;1.00;;;;;;;;;;5025016;28;20050;-55
2021/04/26 09:17:23;;;;;;;4.60;1.33;;;;;;;;;;5041182;28;20037;-56
2021/04/26 09:19:49;;;;;;;4.65;1.27;;;;;;;;;;5037814;28;20047;-56
2021/04/26 09:22:15;;;;;;;2.65;1.20;;;;;;;;;;5040615;28;20075;-54
2021/04/26 09:24:41;;;;;;;3.15;1.13;;;;;;;;;;5044555;28;20037;-55
2021/04/26 09:27:09;;;;;;;4.32;1.55;;;;;;;;;;5041937;28;20041;-56
2021/04/26 09:29:35;;;;;;;;;;;;;;;;;;5043013;28;20067;-56
2021/04/26 09:32:02;;;;;;;10.48;1.33;;;;;;;;;;5042211;28;19933;-55
2021/04/26 09:34:30;;;;;;;4.00;1.58;;;;;;;;;;5036819;28;20047;-54
2021/04/26 09:37:12;;;;;;;5.10;1.40;;;;;;;;;;5024264;28;20041;-56
2021/04/26 09:39:39;;;;;;;2.83;1.20;;;;;;;;;;5054870;28;20060;-57
2021/04/26 09:42:05;;;;;;;3.45;1.35;;;;;;;;;;5043713;28;20056;-51
2021/04/26 09:44:32;;;;;;;4.70;1.33;;;;;;;;;;5039479;28;20048;-57
2021/04/26 09:46:58;;;;;;;2.85;1.30;;;;;;;;;;5044002;28;20043;-53
2021/04/26 09:49:25;;;;;;;2.72;1.35;;;;;;;;;;5040789;28;20049;-56
2021/04/26 09:51:53;;;;;;;4.57;1.15;;;;;;;;;;5063421;28;20071;-56
2021/04/26 09:54:33;;;;;;;2.40;1.02;;;;;;;;;;5057829;28;20041;-52
2021/04/26 09:57:00;;;;;;;1.73;0.93;;;;;;;;;;5042744;28;20065;-53
2021/04/26 09:59:26;;;;;;;4.35;0.98;;;;;;;;;;5036159;28;20045;-54
2021/04/26 10:01:53;;;;;;;3.17;1.58;;;;;;;;;;5042411;28;20048;-53
2021/04/26 10:04:19;;;;;;;4.68;1.40;;;;;;;;;;5046514;28;20041;-56
2021/04/26 10:06:47;;;;;;;3.20;1.30;;;;;;;;;;5023913;28;20114;-55
2021/04/26 10:09:15;;;;;;;3.35;1.25;;;;;;;;;;5021908;28;20095;-57
2021/04/26 10:11:40;;;;;;;4.32;1.38;;;;;;;;;;5040039;28;20061;-55
2021/04/26 10:14:07;;;;;;;4.07;1.35;;;;;;;;;;5036545;28;20041;-53
2021/04/26 10:16:35;;;;;;;4.10;1.45;;;;;;;;;;5043157;28;20045;-55
2021/04/26 10:19:04;;;;;;;5.25;1.42;;;;;;;;;;5039671;28;20041;-53
2021/04/26 10:21:31;;;;;;;8.10;1.45;;;;;;;;;;5036705;28;20045;-56
2021/04/26 10:23:57;;;;;;;6.75;1.50;;;;;;;;;;5044444;28;20037;-55
2021/04/26 10:26:39;;;;;;;5.97;1.95;;;;;;;;;;5029956;28;20052;-55
2021/04/26 10:29:09;;;;;;;4.93;1.80;;;;;;;;;;5039525;28;20163;-56
2021/04/26 10:31:50;;;;;;;3.30;1.10;;;;;;;;;;5022445;28;20044;-56
2021/04/26 10:34:17;;;;;;;3.53;1.50;;;;;;;;;;5039213;28;20056;-57
2021/04/26 10:36:44;;;;;;;5.55;1.27;;;;;;;;;;5022137;28;20057;-54
2021/04/26 10:39:11;;;;;;;8.00;1.63;;;;;;;;;;5040986;28;20049;-57
2021/04/26 10:42:00;;;;;;;4.47;1.20;;;;;;;;;;5024772;28;20029;-56
2021/04/26 10:44:47;;;;;;;5.38;1.20;;;;;;;;;;5023755;28;20034;-55
2021/04/26 10:47:18;;;;;;;11.38;1.60;;;;;;;;;;5033254;28;20053;-56
2021/04/26 10:49:46;;;;;;;3.58;1.27;;;;;;;;;;5040127;28;20303;-54
2021/04/26 10:52:30;;;;;;;3.97;1.23;;;;;;;;;;5036762;28;20037;-58
2021/04/26 10:54:57;;;;;;;5.07;1.60;;;;;;;;;;5040713;28;20073;-57
2021/04/26 10:57:30;;;;;;;8.30;1.20;;;;;;;;;;5037320;28;20129;-58
2021/04/26 10:59:56;;;;;;;2.78;1.25;;;;;;;;;;5039430;28;20057;-55
2021/04/26 11:02:30;;;;;;;3.80;1.27;;;;;;;;;;5036368;28;20044;-55
2021/04/26 11:05:15;;;;;;;9.23;1.50;;;;;;;;;;5039976;28;20049;-53
2021/04/26 11:07:43;;;;;;;4.75;1.70;;;;;;;;;;5033199;28;20077;-56
2021/04/26 11:10:37;;;;;;;3.45;1.35;;;;;;;;;;5037540;28;20060;-57
2021/04/26 11:13:23;;;;;;;3.58;1.40;;;;;;;;;;5009183;28;20041;-55
2021/04/26 11:16:02;;;;;;;5.95;1.42;;;;;;;;;;5044006;28;20127;-58
2021/04/26 11:18:30;;;;;;;2.38;1.08;;;;;;;;;;5038334;28;20041;-58
2021/04/26 11:20:56;;;;;;;7.78;1.60;;;;;;;;;;5042305;28;20206;-58
2021/04/26 11:23:42;;;;;;;2.72;1.27;;;;;;;;;;5040046;28;20048;-58
2021/04/26 11:26:12;;;;;;;3.40;1.40;;;;;;;;;;5041062;28;20029;-57
2021/04/26 11:28:53;;;;;;;7.47;1.50;;;;;;;;;;5027027;28;20052;-56
2021/04/26 11:31:19;;;;;;;6.65;1.40;;;;;;;;;;5010206;28;20037;-57
2021/04/26 11:33:53;;;;;;;3.80;1.60;;;;;;;;;;5028051;28;20026;-57
2021/04/26 11:36:21;;;;;;;5.80;1.50;;;;;;;;;;5041655;28;20037;-59
2021/04/26 11:39:01;;;;;;;5.63;1.55;;;;;;;;;;5030424;28;20036;-58
2021/04/26 11:41:38;;;;;;;4.13;1.00;;;;;;;;;;5013422;28;20055;-57
2021/04/26 11:44:07;;;;;;;8.75;1.63;;;;;;;;;;5018872;28;20058;-58
2021/04/26 11:46:34;;;;;;;3.92;1.10;;;;;;;;;;5040951;28;20048;-55
2021/04/26 11:49:19;;;;;;;7.13;1.52;;;;;;;;;;5040241;28;20061;-58
2021/04/26 11:51:46;;;;;;;13.50;1.40;;;;;;;;;;5042481;28;20045;-56
2021/04/26 11:54:14;;;;;;;6.95;1.80;;;;;;;;;;5040346;28;20045;-58
2021/04/26 11:56:40;;;;;;;5.05;1.58;;;;;;;;;;5043547;28;20050;-58
2021/04/26 11:59:07;;;;;;;6.30;1.48;;;;;;;;;;5018529;28;20046;-57
2021/04/26 12:01:33;;;;;;;8.45;1.50;;;;;;;;;;5015060;28;20045;-59
2021/04/26 12:04:00;;;;;;;7.68;1.75;;;;;;;;;;5025161;28;20068;-59
2021/04/26 12:06:26;;;;;;;4.90;1.13;;;;;;;;;;5041475;28;20233;-59
2021/04/26 12:08:55;;;;;;;6.20;1.70;;;;;;;;;;5025826;28;20116;-57
2021/04/26 12:11:22;;;;;;;4.70;1.60;;;;;;;;;;5015979;28;20037;-59
2021/04/26 12:14:08;;;;;;;6.20;1.55;;;;;;;;;;5038388;28;20033;-57
2021/04/26 12:16:36;;;;;;;5.47;1.63;;;;;;;;;;5041560;28;20045;-58
2021/04/26 12:19:03;;;;;;;5.47;2.00;;;;;;;;;;5037903;28;20033;-55
2021/04/26 12:21:29;;;;;;;2.88;1.25;;;;;;;;;;5041128;28;20056;-58
2021/04/26 12:23:55;;;;;;;8.55;1.50;;;;;;;;;;5040703;28;20041;-56
2021/04/26 12:26:22;;;;;;;3.08;1.23;;;;;;;;;;5037827;28;20195;-58
2021/04/26 12:28:49;;;;;;;6.45;1.65;;;;;;;;;;5043155;28;20048;-57
2021/04/26 12:31:22;;;;;;;4.35;1.30;;;;;;;;;;5039281;28;20072;-57
2021/04/26 12:33:48;;;;;;;10.73;2.05;;;;;;;;;;5027207;28;20056;-56
2021/04/26 12:36:14;;;;;;;4.80;1.70;;;;;;;;;;5038782;28;20041;-57
2021/04/26 12:38:46;;;;;;;7.03;1.48;;;;;;;;;;5025219;28;20069;-58
2021/04/26 12:41:13;;;;;;;6.35;1.80;;;;;;;;;;5030092;28;20045;-56
2021/04/26 12:43:41;;;;;;;6.70;1.50;;;;;;;;;;5041459;28;20052;-59
2021/04/26 12:46:07;;;;;;;6.57;2.00;;;;;;;;;;5031106;28;20040;-58
2021/04/26 12:48:34;;;;;;;5.63;1.58;;;;;;;;;;5023783;28;20052;-57
2021/04/26 12:51:00;;;;;;;10.13;1.60;;;;;;;;;;5024922;28;20044;-57
2021/04/26 12:53:32;;;;;;;4.05;1.80;;;;;;;;;;5042476;28;20037;-58
2021/04/26 12:56:18;;;;;;;4.82;1.70;;;;;;;;;;5035944;28;20033;-56
2021/04/26 12:58:51;;;;;;;7.70;1.45;;;;;;;;;;5025507;28;20053;-58
2021/04/26 13:01:18;;;;;;;5.75;1.60;;;;;;;;;;5024370;28;20051;-58
2021/04/26 13:03:52;;;;;;;3.47;1.30;;;;;;;;;;5043395;28;20229;-58
2021/04/26 13:06:19;;;;;;;8.23;1.90;;;;;;;;;;5037855;28;20044;-58
2021/04/26 13:08:46;;;;;;;7.50;1.40;;;;;;;;;;5040404;28;20350;-58
2021/04/26 13:11:24;;;;;;;6.05;1.67;;;;;;;;;;5037249;28;20167;-59
2021/04/26 13:13:52;;;;;;;7.28;1.90;;;;;;;;;;5041995;28;20041;-59
2021/04/26 13:16:18;;;;;;;5.97;1.57;;;;;;;;;;5037756;28;20037;-59
2021/04/26 13:18:45;;;;;;;11.23;1.58;;;;;;;;;;5042101;28;20049;-59
2021/04/26 13:21:11;;;;;;;8.05;1.88;;;;;;;;;;5043265;28;20049;-58
2021/04/26 13:23:39;;;;;;;7.22;1.58;;;;;;;;;;5039373;28;20045;-56
2021/04/26 13:26:21;;;;;;;6.93;1.60;;;;;;;;;;5041610;28;20052;-58
2021/04/26 13:28:48;;;;;;;5.03;1.67;;;;;;;;;;5023335;28;20063;-58
2021/04/26 13:31:14;;;;;;;8.98;1.35;;;;;;;;;;5025308;28;20037;-57
2021/04/26 13:33:40;;;;;;;11.57;1.52;;;;;;;;;;5019976;28;20033;-58
2021/04/26 13:36:07;;;;;;;5.68;1.95;;;;;;;;;;5026000;28;20037;-56
2021/04/26 13:38:33;;;;;;;6.45;1.77;;;;;;;;;;5032804;28;20055;-57
2021/04/26 13:41:00;;;;;;;7.30;1.55;;;;;;;;;;5057857;28;20021;-57
2021/04/26 13:43:26;;;;;;;9.23;1.90;;;;;;;;;;5030828;28;20126;-51
2021/04/26 13:45:52;;;;;;;4.72;1.50;;;;;;;;;;5023827;28;20033;-56
2021/04/26 13:48:19;;;;;;;6.72;1.52;;;;;;;;;;5021110;28;20045;-57
2021/04/26 13:50:46;;;;;;;9.82;1.52;;;;;;;;;;5024774;28;20034;-57
2021/04/26 13:53:12;;;;;;;4.35;1.50;;;;;;;;;;5020244;28;20041;-58
2021/04/26 13:55:38;;;;;;;6.30;1.50;;;;;;;;;;5024539;28;20049;-58
2021/04/26 13:58:05;;;;;;;6.45;1.42;;;;;;;;;;5020168;28;20090;-56
2021/04/26 14:00:33;;;;;;;9.98;1.70;;;;;;;;;;5031863;28;20037;-54
2021/04/26 14:03:01;;;;;;;10.07;1.50;;;;;;;;;;5039088;28;20377;-58
2021/04/26 14:05:27;;;;;;;;;;;;;;;;;;5023130;28;20245;-59
2021/04/26 14:07:57;;;;;;;10.77;1.70;;;;;;;;;;5023206;28;19929;-58
2021/04/26 14:10:23;;;;;;;5.38;1.70;;;;;;;;;;5035216;28;20099;-57
2021/04/26 14:12:49;;;;;;;5.38;1.60;;;;;;;;;;5040440;28;20069;-55
2021/04/26 14:15:15;;;;;;;5.18;1.73;;;;;;;;;;5039662;28;20085;-57
2021/04/26 14:17:41;;;;;;;8.15;2.10;;;;;;;;;;5041941;28;20036;-58
2021/04/26 14:20:08;;;;;;;4.53;1.60;;;;;;;;;;5037343;28;20041;-59
2021/04/26 14:22:34;;;;;;;6.00;1.95;;;;;;;;;;5061976;28;20049;-57
2021/04/26 14:25:01;;;;;;;9.18;1.80;;;;;;;;;;5038290;28;20052;-57
2021/04/26 14:27:30;;;;;;;5.82;1.65;;;;;;;;;;5040479;28;20034;-58
2021/04/26 14:29:56;;;;;;;4.07;1.55;;;;;;;;;;5039253;28;20045;-58
2021/04/26 14:32:22;;;;;;;4.95;1.77;;;;;;;;;;5062320;28;20068;-59
2021/04/26 14:34:48;;;;;;;11.15;1.50;;;;;;;;;;5049930;28;20033;-56
2021/04/26 14:37:14;;;;;;;5.55;1.60;;;;;;;;;;5041918;28;20043;-59
2021/04/26 14:39:40;;;;;;;4.25;1.38;;;;;;;;;;5039342;28;20064;-59
2021/04/26 14:42:07;;;;;;;4.13;1.50;;;;;;;;;;5041507;28;20060;-58
2021/04/26 14:44:36;;;;;;;4.45;1.25;;;;;;;;;;5060531;28;20053;-57
2021/04/26 14:47:06;;;;;;;2.78;1.20;;;;;;;;;;5042113;28;20037;-58